Weather at General Abelardo L. Rodríguez International Airport

Public forecast

Using degrees Celsius for public forecast. Weather courtesy of forecast.io.

Current aviation weather report (METAR) for General Abelardo L. Rodríguez International Airport

Retrieved 2020/10/19 14:40 UTC (40 minutes ago):

MMTJ 191440Z 36010KT 3SM BR HZ OVC006 17/16 A3001 RMK SLP179 5//// 912 8/6// TWR VSBY

Aviation forecast (TAF) for General Abelardo L. Rodríguez International Airport

Retrieved 2020/10/19 12:52 UTC (2 hours ago):

TAF MMTJ 191052Z 1912/2018 00000KT 5SM HZ OVC005 TX29/1920Z TN18/1912Z TEMPO 1912/1914 3SM BR HZ OVC004 BECMG 1915/1916 4SM HZ BKN010 FM191800 30010KT P6SM BKN250 FM200600 27005KT 6SM HZ SCT005 TEMPO 2008/2012 4SM HZ BKN005 FM201500 00000KT 5SM HZ SCT005 BKN010 FM201700 32010KT P6SM BKN250